Latest Weather Observations for Kanagulk

IDV60801

Issued at 8:12 pm EST Wednesday 12 August 2020 (issued every 10 minutes, with the page automatically refreshed every 10 minutes)

About weather observations | Map of weather stations | Latest weather observations for VIC | Other Formats
Station Details ID: 079097 Name: KANAGULK Lat: -37.12 Lon: 141.80 Height: 188.8 m
Data from the previous 72 hours. | See also: Recent months at Kanagulk
Date/Time
EST
Temp
°C
App
Temp
°C
Dew
Point
°C
Rel
Hum
%
Delta-T
°C
Wind Press
QNH
hPa
Press
MSL
hPa
Rain since
9am
mm
Dir  Spd
km/h
Gust
km/h
Spd
kts
Gust
kts
12/08:00pm 11.0 10.5 10.7 98 0.2 NNW 4 9 2 5 1007.0 1007.3 5.2
12/07:30pm 11.3 9.9 11.0 98 0.2 N 9 11 5 6 1006.7 1006.9 5.2
12/07:00pm 11.5 10.5 11.0 97 0.3 N 7 11 4 6 1006.5 1006.7 5.2
12/06:30pm 11.6 11.6 11.1 97 0.3 NNW 2 6 1 3 1006.2 1006.4 4.8
12/06:00pm 11.5 10.5 10.9 96 0.3 NW 7 11 4 6 1006.0 1006.2 4.2
12/05:30pm 11.8 10.0 10.9 94 0.5 N 11 17 6 9 1005.6 1005.8 2.0
12/05:00pm 12.4 11.8 11.6 95 0.4 NNW 6 11 3 6 1005.3 1005.5 1.6
12/04:30pm 12.8 10.8 11.5 92 0.7 N 13 15 7 8 1005.1 1005.3 1.2
12/04:00pm 13.7 10.2 10.3 80 1.8 N 19 26 10 14 1004.9 1005.1 0.0
12/03:30pm 14.7 11.5 11.3 80 1.8 NNE 19 22 10 12 1004.8 1005.0 0.0
12/03:00pm 13.7 10.0 10.3 80 1.8 NNE 20 30 11 16 1004.9 1005.1 0.0
12/02:30pm 13.7 10.6 10.3 80 1.8 N 17 24 9 13 1005.1 1005.3 0.0
12/02:00pm 13.3 10.0 10.8 85 1.3 NNE 19 24 10 13 1005.3 1005.5 0.0
12/01:30pm 13.1 9.6 10.3 83 1.5 N 19 26 10 14 1005.8 1006.0 0.0
12/01:00pm 12.9 9.4 10.8 87 1.1 N 20 28 11 15 1006.1 1006.3 0.0
12/12:30pm 12.7 9.1 10.4 86 1.2 N 20 30 11 16 1006.3 1006.5 0.0
12/12:00pm 12.2 8.1 10.1 87 1.1 NNE 22 32 12 17 1006.7 1006.9 0.0
12/11:30am 11.6 7.9 10.0 90 0.8 NNE 20 28 11 15 1006.9 1007.2 0.0
12/11:00am 10.6 6.0 9.5 93 0.6 NNE 24 37 13 20 1007.2 1007.5 0.0
12/10:30am 10.4 6.4 9.2 92 0.6 NNE 20 28 11 15 1007.5 1007.8 0.0
12/10:00am 10.2 6.3 9.3 94 0.5 NNE 20 30 11 16 1007.7 1007.9 0.0
12/09:30am 9.8 5.8 9.0 95 0.4 NNE 20 28 11 15 1007.8 1008.0 0.0
12/09:00am 9.8 5.8 9.2 96 0.3 N 20 30 11 16 1008.0 1008.2 2.2
12/08:30am 9.8 6.4 9.0 95 0.4 N 17 24 9 13 1008.1 1008.3 2.2
12/08:00am 9.7 5.9 8.9 95 0.4 N 19 24 10 13 1007.9 1008.1 2.2
12/07:30am 9.7 5.9 8.9 95 0.4 N 19 28 10 15 1007.8 1008.0 2.2
12/07:00am 9.5 5.4 8.7 95 0.4 N 20 26 11 14 1007.5 1007.8 2.2
12/06:30am 9.4 5.5 8.8 96 0.3 N 19 28 10 15 1007.5 1007.8 2.2
12/06:00am 9.4 5.4 8.9 97 0.2 NNE 20 28 11 15 1007.5 1007.8 2.2
12/05:30am 9.5 5.5 8.9 96 0.3 N 20 26 11 14 1007.5 1007.8 2.2
12/05:00am 9.8 6.4 9.0 95 0.4 N 17 28 9 15 1007.5 1007.8 2.2
12/04:30am 10.0 6.2 9.2 95 0.4 N 19 26 10 14 1007.5 1007.8 2.2
12/04:00am 10.1 6.2 9.3 95 0.4 NNE 20 30 11 16 1007.8 1008.0 2.2
12/03:30am 10.2 5.9 9.4 95 0.4 N 22 32 12 17 1008.1 1008.3 2.2
12/03:00am 10.1 5.4 9.3 95 0.4 NNE 24 35 13 19 1008.1 1008.3 2.2
12/02:30am 10.1 5.5 9.5 96 0.3 NNE 24 30 13 16 1008.3 1008.5 2.2
12/02:00am 10.0 6.1 9.4 96 0.3 N 20 32 11 17 1008.8 1009.0 2.2
12/01:30am 9.9 6.0 9.4 97 0.3 N 20 32 11 17 1008.9 1009.1 2.2
12/01:00am 9.8 6.5 9.5 98 0.2 N 17 24 9 13 1009.0 1009.2 2.2
12/12:30am 9.8 5.9 9.5 98 0.2 N 20 35 11 19 1009.4 1009.6 2.2
12/12:00am 9.8 5.5 9.3 97 0.3 NNE 22 33 12 18 1009.4 1009.6 1.6
 
Date/Time
EST
Temp
°C
App
Temp
°C
Dew
Point
°C
Rel
Hum
%
Delta-T
°C
Wind Press
QNH
hPa
Press
MSL
hPa
Rain since
9am
mm
Dir  Spd
km/h
Gust
km/h
Spd
kts
Gust
kts
11/11:30pm 9.7 4.6 9.2 97 0.2 NNE 26 35 14 19 1009.6 1009.8 1.4
11/11:00pm 9.8 4.3 9.0 95 0.4 N 28 44 15 24 1009.9 1010.1 1.2
11/10:30pm 9.7 3.7 8.8 94 0.4 NNE 30 43 16 23 1009.8 1010.0 1.2
11/10:00pm 9.7 3.4 8.8 94 0.4 NNE 32 44 17 24 1010.3 1010.5 1.2
11/09:30pm 9.5 3.9 8.6 94 0.4 NNE 28 43 15 23 1010.4 1010.6 1.2
11/09:00pm 9.3 3.6 8.4 94 0.4 NNE 28 39 15 21 1010.6 1010.8 1.2
11/08:30pm 9.3 4.0 8.4 94 0.4 NNE 26 35 14 19 1010.7 1010.9 1.2
11/08:00pm 9.5 4.2 8.6 94 0.4 NNE 26 35 14 19 1010.8 1011.0 1.0
11/07:30pm 9.6 4.3 8.5 93 0.5 NNE 26 33 14 18 1010.6 1010.8 0.8
11/07:00pm 9.7 4.4 8.5 92 0.6 NNE 26 37 14 20 1010.8 1011.0 0.2
11/06:30pm 10.3 4.9 8.1 86 1.1 NNE 26 37 14 20 1010.7 1010.9 0.0
11/06:00pm 10.8 5.7 7.7 81 1.5 NNE 24 33 13 18 1010.6 1010.8 0.0
11/05:30pm 10.9 5.8 7.8 81 1.5 NNE 24 33 13 18 1010.6 1010.8 0.0
11/05:00pm 11.4 5.6 7.9 79 1.7 NNE 28 39 15 21 1010.1 1010.3 0.0
11/04:30pm 11.7 5.2 8.0 78 1.8 NNE 32 41 17 22 1010.2 1010.4 0.0
11/04:00pm 12.2 6.1 8.3 77 1.9 NNE 30 39 16 21 1010.5 1010.7 0.0
11/03:30pm 12.4 6.3 8.3 76 2.0 NNE 30 39 16 21 1010.3 1010.5 0.0
11/03:00pm 12.7 6.1 8.4 75 2.2 NNE 33 48 18 26 1010.6 1010.8 0.0
11/02:30pm 12.6 6.1 8.1 74 2.2 NNE 32 43 17 23 1010.9 1011.1 0.0
11/02:00pm 12.7 6.5 7.8 72 2.4 NNE 30 39 16 21 1011.4 1011.7 0.0
11/01:30pm 12.3 6.4 7.4 72 2.4 NNE 28 44 15 24 1011.9 1012.2 0.0
11/01:00pm 11.9 6.5 7.8 76 2.0 NNE 26 35 14 19 1012.5 1012.8 0.0
11/12:30pm 11.1 5.2 7.4 78 1.8 NNE 28 43 15 23 1013.0 1013.3 0.0
11/12:00pm 10.6 4.6 7.1 79 1.7 NNE 28 35 15 19 1013.7 1013.9 0.0
11/11:30am 10.3 4.0 7.2 81 1.5 NNE 30 39 16 21 1014.3 1014.5 0.0
11/11:00am 9.7 3.9 6.1 78 1.7 NNE 26 43 14 23 1014.3 1014.5 0.0
11/10:30am 9.2 3.4 6.3 82 1.4 NNE 26 33 14 18 1014.6 1014.8 0.0
11/10:00am 8.9 2.6 5.8 81 1.4 NNE 28 35 15 19 1015.3 1015.5 0.0
11/09:30am 8.3 1.9 5.4 82 1.3 NNE 28 39 15 21 1015.5 1015.7 0.0
11/09:00am 7.6 1.9 5.1 84 1.1 NNE 24 32 13 17 1015.9 1016.2 0.2
11/08:30am 7.1 1.4 4.8 85 1.0 NNE 24 33 13 18 1015.9 1016.2 0.2
11/08:00am 6.9 1.9 4.7 86 1.0 NNE 20 30 11 16 1015.9 1016.2 0.2
11/07:30am 6.9 1.9 4.6 85 1.0 NNE 20 26 11 14 1015.9 1016.2 0.2
11/07:00am 6.6 1.6 4.4 86 1.0 NNE 20 28 11 15 1015.8 1016.1 0.2
11/06:30am 6.8 1.4 4.3 84 1.1 NNE 22 28 12 15 1016.0 1016.3 0.2
11/06:00am 7.2 1.7 4.2 81 1.3 NNE 22 30 12 16 1016.1 1016.4 0.2
11/05:30am 7.1 1.6 4.2 82 1.3 NNE 22 28 12 15 1015.7 1015.9 0.2
11/05:00am 7.1 2.0 4.2 82 1.3 NNE 20 30 11 16 1015.5 1015.7 0.2
11/04:30am 6.7 1.2 4.0 83 1.2 NNE 22 30 12 16 1015.1 1015.3 0.2
11/04:00am 6.6 0.7 4.1 84 1.1 NNE 24 30 13 16 1015.4 1015.6 0.2
11/03:30am 6.2 1.1 4.2 87 0.9 NNE 20 26 11 14 1016.0 1016.3 0.2
11/03:00am 6.0 1.9 4.2 88 0.8 NE 15 20 8 11 1016.7 1017.0 0.2
11/02:30am 6.5 2.4 4.3 86 1.0 NNE 15 20 8 11 1017.2 1017.5 0.2
11/02:00am 6.9 2.1 4.4 84 1.1 NNE 19 26 10 14 1017.5 1017.8 0.2
11/01:30am 7.2 2.8 4.7 84 1.1 NNE 17 24 9 13 1017.6 1017.9 0.2
11/01:00am 6.9 2.5 4.9 87 0.9 NNE 17 22 9 12 1017.5 1017.8 0.2
11/12:30am 7.2 2.9 5.2 87 0.9 NNE 17 22 9 12 1017.6 1017.9 0.2
11/12:00am 7.6 2.9 5.2 85 1.1 NNE 19 24 10 13 1017.6 1017.9 0.2
 
Date/Time
EST
Temp
°C
App
Temp
°C
Dew
Point
°C
Rel
Hum
%
Delta-T
°C
Wind Press
QNH
hPa
Press
MSL
hPa
Rain since
9am
mm
Dir  Spd
km/h
Gust
km/h
Spd
kts
Gust
kts
10/11:30pm 7.6 3.4 5.6 87 0.9 NNE 17 24 9 13 1017.6 1017.9 0.2
10/11:00pm 7.7 3.1 5.5 86 1.0 NNE 19 24 10 13 1017.6 1017.9 0.2
10/10:30pm 7.7 3.5 5.5 86 1.0 NNE 17 24 9 13 1018.0 1018.3 0.2
10/10:00pm 7.3 3.4 5.3 87 0.9 NNE 15 17 8 9 1018.0 1018.3 0.2
10/09:30pm 8.0 4.5 5.5 84 1.1 NNE 13 17 7 9 1018.1 1018.4 0.2
10/09:00pm 8.0 3.8 5.5 84 1.1 NNE 17 20 9 11 1017.9 1018.2 0.2
10/08:30pm 7.9 3.7 5.5 85 1.1 NNE 17 20 9 11 1018.1 1018.4 0.2
10/08:00pm 7.9 4.0 5.2 83 1.2 NNE 15 19 8 10 1018.3 1018.6 0.2
10/07:30pm 8.7 5.3 5.8 82 1.3 NNE 13 15 7 8 1018.5 1018.8 0.2
10/07:00pm 8.2 4.7 5.3 82 1.3 NNE 13 15 7 8 1018.4 1018.7 0.2
10/06:30pm 8.1 5.0 5.4 83 1.2 NE 11 13 6 7 1018.1 1018.4 0.2
10/06:00pm 9.7 6.3 6.1 78 1.7 NNE 13 17 7 9 1018.0 1018.3 0.2
10/05:30pm 11.1 8.2 6.5 73 2.2 NNE 11 15 6 8 1018.4 1018.7 0.2
10/05:00pm 13.1 9.0 6.2 63 3.3 NNE 17 22 9 12 1018.4 1018.7 0.2
10/04:30pm 13.8 9.3 5.9 59 3.8 N 19 26 10 14 1018.3 1018.6 0.2
10/04:00pm 14.1 9.7 6.5 60 3.7 NNE 19 28 10 15 1018.2 1018.5 0.2
10/03:30pm 14.4 10.0 6.5 59 3.9 N 19 24 10 13 1018.4 1018.7 0.2
10/03:00pm 14.7 11.0 8.0 64 3.4 N 17 28 9 15 1018.4 1018.7 0.2
10/02:30pm 14.4 9.8 6.7 60 3.8 NNE 20 32 11 17 1018.8 1019.0 0.2
10/02:00pm 14.6 10.8 7.4 62 3.6 NNE 17 24 9 13 1019.3 1019.5 0.2
10/01:30pm 13.9 9.4 6.3 60 3.7 NNE 19 24 10 13 1019.8 1020.0 0.0
10/01:00pm 14.1 10.3 7.6 65 3.2 N 17 26 9 14 1020.4 1020.7 0.0
10/12:30pm 13.7 10.3 7.5 66 3.1 NNE 15 20 8 11 1020.7 1021.0 0.0
10/12:00pm 13.2 9.2 6.8 65 3.1 N 17 22 9 12 1021.1 1021.4 0.0
10/11:30am 12.5 8.0 6.1 65 3.1 NNE 19 24 10 13 1021.7 1022.0 0.0
10/11:00am 12.1 7.8 6.8 70 2.5 NNE 19 24 10 13 1021.6 1021.9 0.0
10/10:30am 11.3 7.6 6.4 72 2.3 NNE 15 19 8 10 1021.8 1022.1 0.0
10/10:00am 9.9 8.8 6.8 81 1.5 NE 2 7 1 4 1021.7 1022.0 0.0
10/09:30am 8.6 6.9 5.9 83 1.2 ESE 4 9 2 5 1021.8 1022.1 0.0
10/09:00am 7.0 4.9 5.6 91 0.6 ESE 6 11 3 6 1021.7 1022.0 0.0
10/08:30am 4.9 2.4 4.5 97 0.2 SSE 7 11 4 6 1021.8 1022.1 0.0
10/08:00am 3.5 0.7 3.2 98 0.1 SSE 7 9 4 5 1021.6 1021.9 0.0
10/07:30am 2.7 -1.0 2.3 97 0.2 SSE 11 13 6 7 1021.6 1021.9 0.0
10/07:00am 2.9 -0.8 2.6 98 0.1 SSE 11 13 6 7 1021.4 1021.7 0.0
10/06:30am 2.4 -1.4 2.0 97 0.2 SSE 11 13 6 7 1021.2 1021.5 0.0
10/06:00am 2.9 -0.4 2.6 98 0.1 S 9 11 5 6 1021.0 1021.3 0.0
10/05:30am 2.7 -0.6 2.3 97 0.2 SSE 9 11 5 6 1020.7 1021.0 0.0
10/05:00am 3.2 0.0 2.8 97 0.2 SSE 9 11 5 6 1020.7 1021.0 0.0
10/04:30am 3.3 0.0 2.7 96 0.2 SSE 9 13 5 7 1020.7 1021.0 0.0
10/04:00am 3.8 0.6 3.2 96 0.2 SSE 9 11 5 6 1020.8 1021.1 0.0
10/03:30am 4.2 1.1 3.6 96 0.3 S 9 13 5 7 1020.8 1021.1 0.0
10/03:00am 4.3 1.2 3.6 95 0.3 SSE 9 11 5 6 1021.0 1021.3 0.0
10/02:30am 4.9 2.3 4.2 95 0.3 S 7 11 4 6 1021.2 1021.5 0.0
10/02:00am 4.4 1.3 3.7 95 0.3 SSE 9 11 5 6 1021.2 1021.5 0.0
10/01:30am 4.0 0.4 3.0 93 0.4 SSE 11 13 6 7 1021.4 1021.7 0.0
10/01:00am 4.9 1.8 3.7 92 0.5 SSE 9 11 5 6 1021.4 1021.7 0.0
10/12:30am 4.4 0.9 3.4 93 0.4 SSE 11 13 6 7 1021.4 1021.7 0.0
10/12:00am 5.4 2.1 4.5 94 0.4 S 11 15 6 8 1021.5 1021.8 0.0
 
Date/Time
EST
Temp
°C
App
Temp
°C
Dew
Point
°C
Rel
Hum
%
Delta-T
°C
Wind Press
QNH
hPa
Press
MSL
hPa
Rain since
9am
mm
Dir  Spd
km/h
Gust
km/h
Spd
kts
Gust
kts
09/11:30pm 5.9 3.4 4.9 93 0.4 S 7 9 4 5 1021.5 1021.8 0.0
09/11:00pm 6.2 3.4 5.2 93 0.4 S 9 11 5 6 1021.3 1021.6 0.0
09/10:30pm 6.4 3.3 5.4 93 0.4 S 11 13 6 7 1021.1 1021.4 0.0
09/10:00pm 6.8 3.7 5.7 93 0.5 S 11 15 6 8 1021.1 1021.4 0.0
09/09:30pm 7.0 3.6 5.9 93 0.5 S 13 17 7 9 1021.0 1021.3 0.0
09/09:00pm 7.6 4.3 6.5 93 0.5 S 13 17 7 9 1020.9 1021.2 0.0
09/08:30pm 8.1 4.1 6.7 91 0.7 S 17 20 9 11 1020.8 1021.1 0.0

Other formats

Comma delimited format used in spreadsheet applications
http://www.bom.gov.au/fwo/IDV60801/IDV60801.95827.axf

JavaScript Object Notation format (JSON) in row-major order
http://www.bom.gov.au/fwo/IDV60801/IDV60801.95827.json

Data quality

Most of these data are generated automatically and are frequently updated. Quality checks on data are not normally performed. It is possible for incorrect values to appear. Refer to information at About Latest Weather Observations and please check the disclaimer before using these data.